createdAt,value
2023-01-10T00:01:18.605Z,67.35
2023-01-10T00:06:46.442Z,67.63
2023-01-10T00:12:28.869Z,67.00
2023-01-10T00:17:52.061Z,66.76
2023-01-10T00:23:24.415Z,66.28
2023-01-10T00:28:49.423Z,65.37
2023-01-10T00:34:12.788Z,65.55
2023-01-10T00:39:36.582Z,66.18
2023-01-10T00:45:08.465Z,65.96
2023-01-10T00:50:36.881Z,66.23
2023-01-10T00:56:07.025Z,66.26
2023-01-10T01:01:37.629Z,67.60
2023-01-10T01:07:06.656Z,68.63
2023-01-10T01:12:30.711Z,68.89
2023-01-10T01:18:01.535Z,68.76
2023-01-10T01:23:31.531Z,68.36
2023-01-10T01:29:00.698Z,68.68
2023-01-10T01:34:31.430Z,68.07
2023-01-10T01:39:59.999Z,67.78
2023-01-10T01:45:48.099Z,67.60
2023-01-10T01:51:25.342Z,67.58
2023-01-10T01:57:00.098Z,67.51
2023-01-10T02:02:34.114Z,67.40
2023-01-10T02:08:04.971Z,67.24
2023-01-10T02:13:35.255Z,66.67
2023-01-10T02:19:09.251Z,66.81
2023-01-10T02:25:19.706Z,66.16
2023-01-10T02:31:17.436Z,66.45
2023-01-10T02:36:54.391Z,66.09
2023-01-10T02:42:30.821Z,66.21
2023-01-10T02:48:00.610Z,66.60
2023-01-10T02:53:38.106Z,67.47
2023-01-10T02:59:51.025Z,67.33
2023-01-10T03:05:30.276Z,67.54
2023-01-10T03:11:03.687Z,68.05
2023-01-10T03:16:35.471Z,67.70
2023-01-10T03:22:06.367Z,67.55
2023-01-10T03:27:45.716Z,67.86
2023-01-10T03:33:18.968Z,67.77
2023-01-10T03:38:53.207Z,67.96
2023-01-10T03:44:44.758Z,68.18
2023-01-10T03:50:19.226Z,68.12
2023-01-10T03:55:47.802Z,67.82
2023-01-10T04:01:18.408Z,67.80
2023-01-10T08:18:43.311Z,55.46
2023-01-10T08:24:09.183Z,55.45
2023-01-10T08:29:34.188Z,55.89
2023-01-10T08:35:00.385Z,54.39
2023-01-10T08:40:27.017Z,55.08
2023-01-10T08:45:55.760Z,55.00
2023-01-10T08:51:20.827Z,54.59
2023-01-10T08:56:49.948Z,54.26
2023-01-10T09:02:19.063Z,54.90
2023-01-10T09:07:43.892Z,54.08
2023-01-10T09:13:10.834Z,54.04
2023-01-10T09:18:34.199Z,54.60
2023-01-10T09:24:00.834Z,54.50
2023-01-10T09:29:30.185Z,54.62
2023-01-10T09:34:59.259Z,53.78
2023-01-10T09:40:44.777Z,53.99
2023-01-10T09:46:14.010Z,53.18
2023-01-10T09:51:39.360Z,52.77
2023-01-10T09:57:17.956Z,53.22
2023-01-10T10:02:50.758Z,53.64
2023-01-10T10:08:21.189Z,52.77
2023-01-10T10:13:57.081Z,52.01
2023-01-10T10:19:35.587Z,53.00
2023-01-10T10:25:17.670Z,52.41
2023-01-10T10:30:57.646Z,51.46
2023-01-10T10:36:36.166Z,51.98
2023-01-10T10:42:11.972Z,52.75
2023-01-10T10:47:50.029Z,51.75
2023-01-10T10:53:19.823Z,52.52
2023-01-10T10:58:53.808Z,52.31
2023-01-10T11:04:25.117Z,54.19
2023-01-10T11:10:10.656Z,55.90
2023-01-10T11:15:42.800Z,55.22
2023-01-10T11:21:16.549Z,57.55
2023-01-10T11:26:46.045Z,57.40
2023-01-10T11:32:18.164Z,58.49
2023-01-10T11:38:00.761Z,59.39
2023-01-10T11:43:34.420Z,60.00
2023-01-10T11:49:08.149Z,59.95
2023-01-10T11:54:43.010Z,59.99
2023-01-10T12:00:15.717Z,60.20
2023-01-10T12:05:52.793Z,60.32
2023-01-10T12:11:29.328Z,59.76
2023-01-10T12:17:01.352Z,60.37
2023-01-10T12:22:33.465Z,61.07
2023-01-10T12:28:03.870Z,61.54
2023-01-10T12:33:37.008Z,61.64
2023-01-10T12:39:17.520Z,62.53
2023-01-10T12:44:53.764Z,63.34
2023-01-10T12:50:25.110Z,64.06
2023-01-10T12:55:58.548Z,65.02
2023-01-10T13:01:33.028Z,64.39
2023-01-10T13:07:02.824Z,65.02
2023-01-10T13:12:37.851Z,66.10
2023-01-10T13:18:21.506Z,66.56
2023-01-10T13:23:53.201Z,66.67
2023-01-10T13:29:24.482Z,66.26
2023-01-10T13:34:55.863Z,65.91
2023-01-10T13:40:30.441Z,65.08
2023-01-10T13:46:32.303Z,65.80
2023-01-10T17:06:41.653Z,64.21
2023-01-10T17:12:19.466Z,64.28
2023-01-10T17:17:44.986Z,64.32
2023-01-10T17:23:16.418Z,64.61
2023-01-10T17:28:46.658Z,64.89
2023-01-10T17:34:11.524Z,65.23
2023-01-10T17:45:46.302Z,65.50
2023-01-10T17:51:58.351Z,65.91
2023-01-10T17:57:43.955Z,66.64
2023-01-10T18:03:11.537Z,66.16
2023-01-10T18:08:54.933Z,66.70
2023-01-10T18:14:35.715Z,67.03
2023-01-10T18:20:04.697Z,68.25
2023-01-10T18:25:36.326Z,68.54
2023-01-10T18:31:05.512Z,68.85
2023-01-10T18:36:34.917Z,69.75
2023-01-10T18:42:04.148Z,70.75
2023-01-10T18:47:33.792Z,71.35
2023-01-10T18:53:03.489Z,72.27
2023-01-10T18:58:28.775Z,72.79
2023-01-10T19:03:54.019Z,74.37
2023-01-10T19:09:35.592Z,75.80
2023-01-10T19:15:02.829Z,77.14
2023-01-10T19:20:33.516Z,78.47
2023-01-10T19:26:02.159Z,79.65
2023-01-10T19:31:31.070Z,80.95
2023-01-10T19:37:01.322Z,83.20
2023-01-10T19:42:30.034Z,84.61
2023-01-10T19:47:59.139Z,86.34
2023-01-10T19:53:29.462Z,88.72
2023-01-10T19:58:58.895Z,90.13
2023-01-10T20:04:28.509Z,92.97
2023-01-10T20:09:59.475Z,95.07
2023-01-10T20:15:28.416Z,96.70
2023-01-10T20:20:57.931Z,98.50
2023-01-10T20:26:30.562Z,98.99
2023-01-10T20:32:01.125Z,100.00
2023-01-10T20:37:30.849Z,100.00
2023-01-10T20:43:01.586Z,100.00
2023-01-10T20:48:30.777Z,100.00
2023-01-10T20:53:59.832Z,100.00
2023-01-10T20:59:32.354Z,100.00
2023-01-10T21:05:01.092Z,100.00
2023-01-10T21:10:30.499Z,100.00
2023-01-10T21:16:00.770Z,100.00
2023-01-10T21:21:29.263Z,100.00
2023-01-10T21:26:58.233Z,100.00
2023-01-10T21:32:28.643Z,100.00
2023-01-10T21:37:57.634Z,100.00
2023-01-10T21:43:26.381Z,100.00
2023-01-10T21:48:56.854Z,100.00
2023-01-10T21:54:26.084Z,100.00
2023-01-10T21:59:55.629Z,100.00
2023-01-10T22:05:26.036Z,100.00
